Bloomfield, Michigan
Current Conditions -  °F | °C
As of 12:15 PM on Friday 24 Oct 2014 (Local Time) from KVLL Reporting Station
Broken Clouds Broken Clouds  
Wind Chill: 56°   Ceiling: 7000
Heat Index: 56°   Visibility: 10mi
Dew Point: 43°   Wind: 5mph
Humidity: 61%   Direction: 200°SSW
Pressure: 30.07"   Gusts: NA
Location:  42.5836°N, 83.2458°W
Report Text: KVLL 241615Z AUTO 20004KT 10SM BKN070 13/06 A3007 RMK AO2 T01340059
Loading
Personal Weather Stations






























Interactive Weather Map
Tropical Storm Tracking
New forecast layout! Learn more

10-Day Weather Forecast

Advertisements
Track Severe Weather on mobile